• Join FlightAware (Why Join?)
  • Login
  • US Flag 
08:54AM EDT


 

Airport Tracker/Info


-or-


 

Live Flight TrackerFlight Track Log ✈ DLH917 ✈ 14-Apr-2013 ✈ EGLL / LHR - EDDF / FRA

Flight Track Log - Related Links

Times and Time Zones

All times are in EDT time to prevent confusion due to time zone crossing. See the DLH917 flight status page for this flight to view local times or setup timezone preferences in your user account.

Time Position Orientation Groundspeed Altitude Reporting Facility
EDT Latitude Longitude Course Direction KTS MPH feet Rate Location/Type
02:15PM 51.4277 -0.0473 101° East  Level Estimated
02:16PM 51.4107 0.0905 101° East  Level Estimated
02:17PM 51.3936 0.2283 101° East  Level Estimated
02:18PM 51.3764 0.3659 101° East  Level Estimated
02:19PM 51.3589 0.5034 101° East  Level Estimated
02:20PM 51.3413 0.6409 102° East  Level Estimated
02:21PM 51.3236 0.7782 102° East  Level Estimated
02:22PM 51.3057 0.9154 102° East  Level Estimated
02:23PM 51.2876 1.0525 102° East  Level Estimated
02:24PM 51.2694 1.1895 102° East  Level Estimated
02:25PM 51.2510 1.3263 102° East  Level Estimated
02:26PM 51.2324 1.4631 102° East  Level Estimated
02:27PM 51.2137 1.5998 102° East  Level Estimated
02:28PM 51.1949 1.7363 102° East  Level Estimated
02:29PM 51.1758 1.8728 102° East  Level Estimated
02:30PM 51.1567 2.0091 103° East  Level Estimated
02:31PM 51.1373 2.1453 103° East  Level Estimated
02:32PM 51.1178 2.2814 103° East  Level Estimated
02:33PM 51.0982 2.4174 103° East  Level Estimated
02:34PM 51.0784 2.5532 103° East  Level Estimated
02:35PM 51.0584 2.6890 103° East  Level Estimated
02:36PM 51.0383 2.8246 103° East  Level Estimated
02:37PM 51.0180 2.9601 103° East  Level Estimated
02:38PM 50.9975 3.0955 103° East  Level Estimated
02:39PM 50.9769 3.2308 104° East  Level Estimated
02:40PM 50.9562 3.3659 104° East  Level Estimated
02:41PM 50.9353 3.5010 104° East  Level Estimated
02:42PM 50.9142 3.6359 104° East  Level Estimated
02:43PM 50.8930 3.7707 104° East  Level Estimated
02:44PM 50.8716 3.9053 104° East  Level Estimated
02:45PM 50.8501 4.0399 104° East  Level Estimated
02:46PM 50.8284 4.1743 104° East  Level Estimated
02:47PM 50.8066 4.3086 104° East  Level Estimated
02:48PM 50.7846 4.4427 104° East  Level Estimated
02:49PM 50.7624 4.5768 105° East  Level Estimated
02:50PM 50.7401 4.7107 105° East  Level Estimated
02:51PM 50.7177 4.8445 105° East  Level Estimated
02:52PM 50.6951 4.9781 105° East  Level Estimated
02:53PM 50.6723 5.1116 105° East  Level Estimated
02:54PM 50.6494 5.2450 105° East  Level Estimated
02:55PM 50.6245 5.3890 105° East  Level Estimated
02:56PM 50.5993 5.5329 105° East  Level Estimated
02:57PM 50.5741 5.6766 105° East  Level Estimated
02:58PM 50.5486 5.8201 106° East  Level Estimated
02:59PM 50.5230 5.9635 106° East  Level Estimated
03:00PM 50.4972 6.1067 106° East  Level Estimated
03:01PM 50.4712 6.2498 106° East  Level Estimated
03:02PM 50.4450 6.3927 106° East  Level Estimated
03:03PM 50.4187 6.5355 106° East  Level Estimated
03:04PM 50.3922 6.6781 106° East  Level Estimated
03:05PM 50.3655 6.8205 106° East  Level Estimated
03:06PM 50.3386 6.9628 106° East  Level Estimated
03:07PM 50.3116 7.1049 107° East  Level Estimated
03:08PM 50.2844 7.2469 107° East  Level Estimated
03:09PM 50.2570 7.3887 107° East  Level Estimated
03:10PM 50.2294 7.5303 107° East  Level Estimated
03:11PM 50.2017 7.6718 107° East  Level Estimated
03:12PM 50.1738 7.8131 107° East  Level Estimated
03:13PM 50.1457 7.9542 107° East  Level Estimated
03:14PM 50.1175 8.0952 107° East  Level Estimated
03:15PM 50.0891 8.2360 107° East  Level Estimated
03:16PM 50.0605 8.3766 108° East  Level Estimated
03:17PM 50.0318 8.5171 108° East  Level Estimated
03:18PM 50.0264 8.5431 108° East  Level Estimated
03:19PM 50.0264 8.5431 73° East  Level Estimated
03:20PM 50.0264 8.5431 73° East  Level Estimated
03:21PM 50.0264 8.5431 73° East  Level Estimated
03:22PM 50.0264 8.5431 73° East  Level Estimated
03:23PM 50.0264 8.5431 73° East  Level Estimated
03:24PM 50.0264 8.5431 73° East  Level Estimated
03:25PM 50.0264 8.5431 73° East  Level Estimated